sensor_id;sensor_type;location;lat;lon;timestamp;P1;durP1;ratioP1;P2;durP2;ratioP2
7817;SDS011;3954;52.624;9.212;2022-10-17T00:01:40;5.80;;;3.20;;
7817;SDS011;3954;52.624;9.212;2022-10-17T00:04:06;5.10;;;2.73;;
7817;SDS011;3954;52.624;9.212;2022-10-17T00:06:32;3.40;;;2.70;;
7817;SDS011;3954;52.624;9.212;2022-10-17T00:08:58;2.97;;;2.30;;
7817;SDS011;3954;52.624;9.212;2022-10-17T00:11:25;4.23;;;2.30;;
7817;SDS011;3954;52.624;9.212;2022-10-17T00:13:52;3.97;;;2.83;;
7817;SDS011;3954;52.624;9.212;2022-10-17T00:16:21;2.50;;;2.30;;
7817;SDS011;3954;52.624;9.212;2022-10-17T00:18:49;2.97;;;2.67;;
7817;SDS011;3954;52.624;9.212;2022-10-17T00:21:15;5.63;;;2.90;;
7817;SDS011;3954;52.624;9.212;2022-10-17T00:23:41;2.60;;;2.40;;
7817;SDS011;3954;52.624;9.212;2022-10-17T00:26:08;2.80;;;2.50;;
7817;SDS011;3954;52.624;9.212;2022-10-17T00:28:34;3.80;;;2.60;;
7817;SDS011;3954;52.624;9.212;2022-10-17T00:31:01;3.20;;;2.50;;
7817;SDS011;3954;52.624;9.212;2022-10-17T00:33:27;3.10;;;2.20;;
7817;SDS011;3954;52.624;9.212;2022-10-17T00:36:02;2.90;;;2.30;;
7817;SDS011;3954;52.624;9.212;2022-10-17T00:38:28;2.80;;;2.60;;
7817;SDS011;3954;52.624;9.212;2022-10-17T00:40:54;3.20;;;2.60;;
7817;SDS011;3954;52.624;9.212;2022-10-17T00:43:20;4.60;;;2.30;;
7817;SDS011;3954;52.624;9.212;2022-10-17T00:45:46;2.77;;;2.43;;
7817;SDS011;3954;52.624;9.212;2022-10-17T00:48:12;4.43;;;2.57;;
7817;SDS011;3954;52.624;9.212;2022-10-17T00:50:41;3.27;;;2.30;;
7817;SDS011;3954;52.624;9.212;2022-10-17T00:53:09;4.10;;;2.43;;
7817;SDS011;3954;52.624;9.212;2022-10-17T00:55:37;4.07;;;2.53;;
7817;SDS011;3954;52.624;9.212;2022-10-17T00:58:04;3.33;;;2.40;;
7817;SDS011;3954;52.624;9.212;2022-10-17T01:00:31;5.30;;;2.27;;
7817;SDS011;3954;52.624;9.212;2022-10-17T01:02:57;2.67;;;2.30;;
7817;SDS011;3954;52.624;9.212;2022-10-17T01:05:23;2.40;;;2.20;;
7817;SDS011;3954;52.624;9.212;2022-10-17T01:07:49;2.70;;;2.37;;
7817;SDS011;3954;52.624;9.212;2022-10-17T01:10:18;2.90;;;2.60;;
7817;SDS011;3954;52.624;9.212;2022-10-17T01:12:52;2.73;;;2.20;;
7817;SDS011;3954;52.624;9.212;2022-10-17T01:15:22;2.70;;;2.47;;
7817;SDS011;3954;52.624;9.212;2022-10-17T01:17:57;4.10;;;2.70;;
7817;SDS011;3954;52.624;9.212;2022-10-17T01:20:34;3.87;;;2.60;;
7817;SDS011;3954;52.624;9.212;2022-10-17T01:23:08;2.60;;;2.30;;
7817;SDS011;3954;52.624;9.212;2022-10-17T01:25:41;2.67;;;2.30;;
7817;SDS011;3954;52.624;9.212;2022-10-17T01:28:15;3.87;;;2.90;;
7817;SDS011;3954;52.624;9.212;2022-10-17T01:30:51;2.70;;;2.50;;
7817;SDS011;3954;52.624;9.212;2022-10-17T01:33:23;3.97;;;2.30;;
7817;SDS011;3954;52.624;9.212;2022-10-17T01:35:53;2.60;;;2.37;;
7817;SDS011;3954;52.624;9.212;2022-10-17T01:38:22;3.23;;;2.40;;
7817;SDS011;3954;52.624;9.212;2022-10-17T01:40:49;2.77;;;2.30;;
7817;SDS011;3954;52.624;9.212;2022-10-17T01:43:17;4.13;;;2.40;;
7817;SDS011;3954;52.624;9.212;2022-10-17T01:45:46;4.43;;;2.70;;
7817;SDS011;3954;52.624;9.212;2022-10-17T01:48:16;4.53;;;2.33;;
7817;SDS011;3954;52.624;9.212;2022-10-17T01:50:44;3.30;;;2.50;;
7817;SDS011;3954;52.624;9.212;2022-10-17T01:53:13;2.97;;;2.27;;
7817;SDS011;3954;52.624;9.212;2022-10-17T01:55:40;4.27;;;2.40;;
7817;SDS011;3954;52.624;9.212;2022-10-17T01:58:08;2.53;;;2.30;;
7817;SDS011;3954;52.624;9.212;2022-10-17T02:00:34;2.70;;;2.50;;
7817;SDS011;3954;52.624;9.212;2022-10-17T02:03:03;2.93;;;2.60;;
7817;SDS011;3954;52.624;9.212;2022-10-17T02:05:32;3.13;;;2.70;;
7817;SDS011;3954;52.624;9.212;2022-10-17T02:08:00;3.00;;;2.40;;
7817;SDS011;3954;52.624;9.212;2022-10-17T02:10:29;2.67;;;2.40;;
7817;SDS011;3954;52.624;9.212;2022-10-17T02:12:57;3.13;;;2.67;;
7817;SDS011;3954;52.624;9.212;2022-10-17T02:18:32;2.97;;;2.60;;
7817;SDS011;3954;52.624;9.212;2022-10-17T02:21:05;2.90;;;2.60;;
7817;SDS011;3954;52.624;9.212;2022-10-17T02:23:34;2.30;;;2.10;;
7817;SDS011;3954;52.624;9.212;2022-10-17T02:26:05;2.57;;;2.37;;
7817;SDS011;3954;52.624;9.212;2022-10-17T02:28:32;4.50;;;2.50;;
7817;SDS011;3954;52.624;9.212;2022-10-17T02:31:03;2.90;;;2.60;;
7817;SDS011;3954;52.624;9.212;2022-10-17T02:33:32;2.73;;;2.53;;
7817;SDS011;3954;52.624;9.212;2022-10-17T02:36:01;2.60;;;2.40;;
7817;SDS011;3954;52.624;9.212;2022-10-17T02:38:29;5.03;;;2.70;;
7817;SDS011;3954;52.624;9.212;2022-10-17T02:40:56;3.20;;;2.40;;
7817;SDS011;3954;52.624;9.212;2022-10-17T02:43:22;3.00;;;2.70;;
7817;SDS011;3954;52.624;9.212;2022-10-17T02:45:48;4.83;;;4.37;;
7817;SDS011;3954;52.624;9.212;2022-10-17T02:48:16;4.07;;;3.77;;
7817;SDS011;3954;52.624;9.212;2022-10-17T02:50:46;7.13;;;4.00;;
7817;SDS011;3954;52.624;9.212;2022-10-17T02:53:16;3.43;;;3.13;;
7817;SDS011;3954;52.624;9.212;2022-10-17T02:55:47;3.30;;;3.00;;
7817;SDS011;3954;52.624;9.212;2022-10-17T02:58:15;2.70;;;2.50;;
7817;SDS011;3954;52.624;9.212;2022-10-17T03:00:43;3.43;;;2.43;;
7817;SDS011;3954;52.624;9.212;2022-10-17T03:03:19;3.17;;;2.87;;
7817;SDS011;3954;52.624;9.212;2022-10-17T03:05:45;2.53;;;2.33;;
7817;SDS011;3954;52.624;9.212;2022-10-17T03:08:12;2.93;;;2.23;;
7817;SDS011;3954;52.624;9.212;2022-10-17T03:10:37;3.33;;;2.80;;
7817;SDS011;3954;52.624;9.212;2022-10-17T03:13:05;3.87;;;2.73;;
7817;SDS011;3954;52.624;9.212;2022-10-17T03:15:31;2.90;;;2.57;;
7817;SDS011;3954;52.624;9.212;2022-10-17T03:17:57;4.87;;;2.80;;
7817;SDS011;3954;52.624;9.212;2022-10-17T03:20:23;2.70;;;2.50;;
7817;SDS011;3954;52.624;9.212;2022-10-17T03:22:49;4.27;;;3.00;;
7817;SDS011;3954;52.624;9.212;2022-10-17T03:25:15;2.80;;;2.60;;
7817;SDS011;3954;52.624;9.212;2022-10-17T03:27:41;3.23;;;2.93;;
7817;SDS011;3954;52.624;9.212;2022-10-17T03:30:09;3.03;;;2.80;;
7817;SDS011;3954;52.624;9.212;2022-10-17T03:32:35;2.83;;;2.63;;
7817;SDS011;3954;52.624;9.212;2022-10-17T03:35:01;2.90;;;2.70;;
7817;SDS011;3954;52.624;9.212;2022-10-17T03:37:28;4.33;;;2.60;;
7817;SDS011;3954;52.624;9.212;2022-10-17T03:39:54;3.00;;;2.80;;
7817;SDS011;3954;52.624;9.212;2022-10-17T03:42:20;3.30;;;2.90;;
7817;SDS011;3954;52.624;9.212;2022-10-17T03:44:46;2.90;;;2.70;;
7817;SDS011;3954;52.624;9.212;2022-10-17T03:47:13;3.33;;;2.80;;
7817;SDS011;3954;52.624;9.212;2022-10-17T03:49:39;3.20;;;2.90;;
7817;SDS011;3954;52.624;9.212;2022-10-17T03:52:05;3.77;;;3.13;;
7817;SDS011;3954;52.624;9.212;2022-10-17T03:54:35;3.10;;;2.80;;
7817;SDS011;3954;52.624;9.212;2022-10-17T03:57:01;3.20;;;2.80;;
7817;SDS011;3954;52.624;9.212;2022-10-17T03:59:27;2.73;;;2.40;;
7817;SDS011;3954;52.624;9.212;2022-10-17T04:01:53;2.80;;;2.50;;
7817;SDS011;3954;52.624;9.212;2022-10-17T04:04:20;2.80;;;2.60;;
7817;SDS011;3954;52.624;9.212;2022-10-17T04:06:46;2.97;;;2.60;;
7817;SDS011;3954;52.624;9.212;2022-10-17T04:09:12;2.87;;;2.60;;
7817;SDS011;3954;52.624;9.212;2022-10-17T04:11:38;3.30;;;3.00;;
7817;SDS011;3954;52.624;9.212;2022-10-17T04:14:04;2.93;;;2.70;;
7817;SDS011;3954;52.624;9.212;2022-10-17T04:16:30;4.70;;;2.83;;
7817;SDS011;3954;52.624;9.212;2022-10-17T04:18:57;5.27;;;3.30;;
7817;SDS011;3954;52.624;9.212;2022-10-17T04:21:25;4.90;;;3.20;;
7817;SDS011;3954;52.624;9.212;2022-10-17T04:23:52;3.40;;;3.10;;
7817;SDS011;3954;52.624;9.212;2022-10-17T04:26:19;3.53;;;3.17;;
7817;SDS011;3954;52.624;9.212;2022-10-17T04:28:45;3.27;;;3.00;;
7817;SDS011;3954;52.624;9.212;2022-10-17T04:31:11;3.30;;;2.90;;
7817;SDS011;3954;52.624;9.212;2022-10-17T04:33:38;3.17;;;2.97;;
7817;SDS011;3954;52.624;9.212;2022-10-17T04:36:05;3.00;;;2.67;;
7817;SDS011;3954;52.624;9.212;2022-10-17T04:38:32;4.60;;;3.10;;
7817;SDS011;3954;52.624;9.212;2022-10-17T04:41:03;3.30;;;3.00;;
7817;SDS011;3954;52.624;9.212;2022-10-17T04:43:29;2.97;;;2.77;;
7817;SDS011;3954;52.624;9.212;2022-10-17T04:45:55;4.13;;;3.20;;
7817;SDS011;3954;52.624;9.212;2022-10-17T04:48:22;3.50;;;3.10;;
7817;SDS011;3954;52.624;9.212;2022-10-17T04:50:54;5.30;;;3.13;;
7817;SDS011;3954;52.624;9.212;2022-10-17T04:53:20;4.87;;;3.80;;
7817;SDS011;3954;52.624;9.212;2022-10-17T04:55:48;5.00;;;4.50;;
7817;SDS011;3954;52.624;9.212;2022-10-17T04:58:14;4.83;;;4.43;;
7817;SDS011;3954;52.624;9.212;2022-10-17T05:00:40;4.50;;;4.07;;
7817;SDS011;3954;52.624;9.212;2022-10-17T05:03:06;4.33;;;3.93;;
7817;SDS011;3954;52.624;9.212;2022-10-17T05:05:33;5.47;;;3.87;;
7817;SDS011;3954;52.624;9.212;2022-10-17T05:08:01;4.23;;;3.83;;
7817;SDS011;3954;52.624;9.212;2022-10-17T05:10:27;4.50;;;3.57;;
7817;SDS011;3954;52.624;9.212;2022-10-17T05:12:55;3.77;;;3.13;;
7817;SDS011;3954;52.624;9.212;2022-10-17T05:15:21;4.10;;;3.70;;
7817;SDS011;3954;52.624;9.212;2022-10-17T05:17:47;4.30;;;3.33;;
7817;SDS011;3954;52.624;9.212;2022-10-17T05:20:13;4.00;;;3.67;;
7817;SDS011;3954;52.624;9.212;2022-10-17T05:22:39;4.73;;;3.10;;
7817;SDS011;3954;52.624;9.212;2022-10-17T05:25:05;3.93;;;2.80;;
7817;SDS011;3954;52.624;9.212;2022-10-17T05:27:31;4.53;;;3.63;;
7817;SDS011;3954;52.624;9.212;2022-10-17T05:29:59;4.13;;;3.83;;
7817;SDS011;3954;52.624;9.212;2022-10-17T05:32:25;5.43;;;3.70;;
7817;SDS011;3954;52.624;9.212;2022-10-17T05:34:51;4.43;;;4.03;;
7817;SDS011;3954;52.624;9.212;2022-10-17T05:37:17;4.20;;;3.80;;
7817;SDS011;3954;52.624;9.212;2022-10-17T05:39:43;4.30;;;3.70;;
7817;SDS011;3954;52.624;9.212;2022-10-17T05:42:09;4.30;;;3.90;;
7817;SDS011;3954;52.624;9.212;2022-10-17T05:44:35;4.03;;;3.67;;
7817;SDS011;3954;52.624;9.212;2022-10-17T05:47:04;4.17;;;3.57;;
7817;SDS011;3954;52.624;9.212;2022-10-17T05:49:30;4.90;;;4.40;;
7817;SDS011;3954;52.624;9.212;2022-10-17T05:51:56;6.30;;;3.83;;
7817;SDS011;3954;52.624;9.212;2022-10-17T05:54:22;5.20;;;4.80;;
7817;SDS011;3954;52.624;9.212;2022-10-17T05:56:50;4.87;;;4.30;;
7817;SDS011;3954;52.624;9.212;2022-10-17T05:59:16;5.93;;;4.20;;
7817;SDS011;3954;52.624;9.212;2022-10-17T06:01:42;4.63;;;4.23;;
7817;SDS011;3954;52.624;9.212;2022-10-17T06:04:09;6.03;;;4.00;;
7817;SDS011;3954;52.624;9.212;2022-10-17T06:06:36;4.87;;;4.13;;
7817;SDS011;3954;52.624;9.212;2022-10-17T06:09:02;7.07;;;4.40;;
7817;SDS011;3954;52.624;9.212;2022-10-17T06:11:28;4.90;;;4.27;;
7817;SDS011;3954;52.624;9.212;2022-10-17T06:13:54;5.17;;;4.70;;
7817;SDS011;3954;52.624;9.212;2022-10-17T06:16:20;6.93;;;4.17;;
7817;SDS011;3954;52.624;9.212;2022-10-17T06:18:47;6.40;;;4.17;;
7817;SDS011;3954;52.624;9.212;2022-10-17T06:21:14;4.40;;;4.00;;
7817;SDS011;3954;52.624;9.212;2022-10-17T06:23:42;5.07;;;4.53;;
7817;SDS011;3954;52.624;9.212;2022-10-17T06:26:08;6.07;;;4.83;;
7817;SDS011;3954;52.624;9.212;2022-10-17T06:28:34;5.93;;;4.30;;
7817;SDS011;3954;52.624;9.212;2022-10-17T06:31:02;4.70;;;4.30;;
7817;SDS011;3954;52.624;9.212;2022-10-17T06:33:28;4.80;;;4.40;;
7817;SDS011;3954;52.624;9.212;2022-10-17T06:35:55;5.17;;;4.67;;
7817;SDS011;3954;52.624;9.212;2022-10-17T06:38:22;5.80;;;5.30;;
7817;SDS011;3954;52.624;9.212;2022-10-17T06:40:48;5.40;;;4.37;;
7817;SDS011;3954;52.624;9.212;2022-10-17T06:43:14;7.53;;;4.90;;
7817;SDS011;3954;52.624;9.212;2022-10-17T06:45:40;5.37;;;4.50;;
7817;SDS011;3954;52.624;9.212;2022-10-17T06:48:06;4.90;;;4.50;;
7817;SDS011;3954;52.624;9.212;2022-10-17T06:50:33;7.13;;;4.70;;
7817;SDS011;3954;52.624;9.212;2022-10-17T06:52:59;4.70;;;4.20;;
7817;SDS011;3954;52.624;9.212;2022-10-17T06:55:27;4.40;;;3.93;;
7817;SDS011;3954;52.624;9.212;2022-10-17T06:57:53;4.90;;;4.00;;
7817;SDS011;3954;52.624;9.212;2022-10-17T07:00:19;4.13;;;3.47;;
7817;SDS011;3954;52.624;9.212;2022-10-17T07:02:47;4.90;;;4.07;;
7817;SDS011;3954;52.624;9.212;2022-10-17T07:05:13;6.07;;;3.83;;
7817;SDS011;3954;52.624;9.212;2022-10-17T07:07:39;4.50;;;4.10;;
7817;SDS011;3954;52.624;9.212;2022-10-17T07:10:06;5.27;;;4.47;;
7817;SDS011;3954;52.624;9.212;2022-10-17T07:12:34;4.10;;;3.60;;
7817;SDS011;3954;52.624;9.212;2022-10-17T07:15:00;5.13;;;3.80;;
7817;SDS011;3954;52.624;9.212;2022-10-17T07:17:28;4.73;;;3.97;;
7817;SDS011;3954;52.624;9.212;2022-10-17T07:19:54;6.03;;;4.20;;
7817;SDS011;3954;52.624;9.212;2022-10-17T07:22:20;4.10;;;3.70;;
7817;SDS011;3954;52.624;9.212;2022-10-17T07:24:46;4.43;;;4.03;;
7817;SDS011;3954;52.624;9.212;2022-10-17T07:27:12;5.40;;;4.40;;
7817;SDS011;3954;52.624;9.212;2022-10-17T07:29:39;5.33;;;4.10;;
7817;SDS011;3954;52.624;9.212;2022-10-17T07:32:05;4.37;;;3.97;;
7817;SDS011;3954;52.624;9.212;2022-10-17T07:34:32;4.90;;;3.87;;
7817;SDS011;3954;52.624;9.212;2022-10-17T07:36:58;5.93;;;3.53;;
7817;SDS011;3954;52.624;9.212;2022-10-17T07:39:24;5.37;;;3.63;;
7817;SDS011;3954;52.624;9.212;2022-10-17T07:41:50;3.83;;;3.37;;
7817;SDS011;3954;52.624;9.212;2022-10-17T07:44:16;7.17;;;4.00;;
7817;SDS011;3954;52.624;9.212;2022-10-17T07:46:44;3.70;;;3.30;;
7817;SDS011;3954;52.624;9.212;2022-10-17T07:49:10;4.03;;;3.63;;
7817;SDS011;3954;52.624;9.212;2022-10-17T07:51:36;7.93;;;3.87;;
7817;SDS011;3954;52.624;9.212;2022-10-17T07:54:03;5.27;;;3.20;;
7817;SDS011;3954;52.624;9.212;2022-10-17T07:56:29;5.60;;;3.20;;
7817;SDS011;3954;52.624;9.212;2022-10-17T07:58:56;4.00;;;3.30;;
7817;SDS011;3954;52.624;9.212;2022-10-17T08:01:22;3.53;;;3.23;;
7817;SDS011;3954;52.624;9.212;2022-10-17T08:03:51;5.73;;;3.23;;
7817;SDS011;3954;52.624;9.212;2022-10-17T08:06:17;5.70;;;3.27;;
7817;SDS011;3954;52.624;9.212;2022-10-17T08:08:43;4.23;;;2.90;;
7817;SDS011;3954;52.624;9.212;2022-10-17T08:11:09;3.50;;;3.20;;
7817;SDS011;3954;52.624;9.212;2022-10-17T08:13:36;5.23;;;3.10;;
7817;SDS011;3954;52.624;9.212;2022-10-17T08:16:03;7.33;;;3.23;;
7817;SDS011;3954;52.624;9.212;2022-10-17T08:18:31;2.73;;;2.53;;
7817;SDS011;3954;52.624;9.212;2022-10-17T08:20:59;4.37;;;3.00;;
7817;SDS011;3954;52.624;9.212;2022-10-17T08:23:25;3.87;;;2.87;;
7817;SDS011;3954;52.624;9.212;2022-10-17T08:25:51;2.73;;;2.53;;
7817;SDS011;3954;52.624;9.212;2022-10-17T08:28:17;5.13;;;2.70;;
7817;SDS011;3954;52.624;9.212;2022-10-17T08:30:43;4.20;;;2.77;;
7817;SDS011;3954;52.624;9.212;2022-10-17T08:33:09;4.47;;;2.70;;
7817;SDS011;3954;52.624;9.212;2022-10-17T08:35:35;3.57;;;2.60;;
7817;SDS011;3954;52.624;9.212;2022-10-17T08:38:03;3.80;;;2.30;;
7817;SDS011;3954;52.624;9.212;2022-10-17T08:40:30;3.37;;;2.47;;
7817;SDS011;3954;52.624;9.212;2022-10-17T08:43:07;3.97;;;2.80;;
7817;SDS011;3954;52.624;9.212;2022-10-17T08:45:39;5.67;;;2.80;;
7817;SDS011;3954;52.624;9.212;2022-10-17T08:48:08;4.80;;;2.77;;
7817;SDS011;3954;52.624;9.212;2022-10-17T08:50:36;8.53;;;2.80;;
7817;SDS011;3954;52.624;9.212;2022-10-17T08:53:07;5.80;;;2.80;;
7817;SDS011;3954;52.624;9.212;2022-10-17T08:55:36;3.40;;;2.60;;
7817;SDS011;3954;52.624;9.212;2022-10-17T08:58:02;3.00;;;2.33;;
7817;SDS011;3954;52.624;9.212;2022-10-17T09:00:30;2.53;;;2.30;;
7817;SDS011;3954;52.624;9.212;2022-10-17T09:03:02;3.83;;;2.27;;
7817;SDS011;3954;52.624;9.212;2022-10-17T09:05:33;2.63;;;2.40;;
7817;SDS011;3954;52.624;9.212;2022-10-17T09:08:05;3.67;;;2.70;;
7817;SDS011;3954;52.624;9.212;2022-10-17T09:10:35;4.20;;;2.50;;
7817;SDS011;3954;52.624;9.212;2022-10-17T09:13:06;3.77;;;2.60;;
7817;SDS011;3954;52.624;9.212;2022-10-17T09:15:40;2.90;;;2.20;;
7817;SDS011;3954;52.624;9.212;2022-10-17T09:18:10;4.10;;;2.40;;
7817;SDS011;3954;52.624;9.212;2022-10-17T09:20:39;2.60;;;2.40;;
7817;SDS011;3954;52.624;9.212;2022-10-17T09:23:09;5.17;;;2.43;;
7817;SDS011;3954;52.624;9.212;2022-10-17T09:25:40;3.80;;;2.67;;
7817;SDS011;3954;52.624;9.212;2022-10-17T09:28:10;5.00;;;3.10;;
7817;SDS011;3954;52.624;9.212;2022-10-17T09:30:39;6.70;;;2.23;;
7817;SDS011;3954;52.624;9.212;2022-10-17T09:33:08;6.53;;;2.27;;
7817;SDS011;3954;52.624;9.212;2022-10-17T09:35:35;3.03;;;2.53;;
7817;SDS011;3954;52.624;9.212;2022-10-17T09:38:01;3.90;;;2.27;;
7817;SDS011;3954;52.624;9.212;2022-10-17T09:40:29;2.57;;;2.30;;
7817;SDS011;3954;52.624;9.212;2022-10-17T09:42:57;6.37;;;2.30;;
7817;SDS011;3954;52.624;9.212;2022-10-17T09:45:25;4.27;;;2.33;;
7817;SDS011;3954;52.624;9.212;2022-10-17T09:47:56;2.77;;;2.50;;
7817;SDS011;3954;52.624;9.212;2022-10-17T09:50:25;3.03;;;2.40;;
7817;SDS011;3954;52.624;9.212;2022-10-17T09:52:51;4.50;;;2.60;;
7817;SDS011;3954;52.624;9.212;2022-10-17T09:55:19;4.83;;;2.60;;
7817;SDS011;3954;52.624;9.212;2022-10-17T09:57:55;7.87;;;2.80;;
7817;SDS011;3954;52.624;9.212;2022-10-17T10:00:24;2.83;;;2.33;;
7817;SDS011;3954;52.624;9.212;2022-10-17T10:02:53;4.73;;;2.73;;
7817;SDS011;3954;52.624;9.212;2022-10-17T10:05:32;3.67;;;2.63;;
7817;SDS011;3954;52.624;9.212;2022-10-17T10:08:00;3.40;;;2.60;;
7817;SDS011;3954;52.624;9.212;2022-10-17T10:10:27;4.20;;;2.57;;
7817;SDS011;3954;52.624;9.212;2022-10-17T10:13:04;3.57;;;2.57;;
7817;SDS011;3954;52.624;9.212;2022-10-17T10:15:36;8.80;;;3.07;;
7817;SDS011;3954;52.624;9.212;2022-10-17T10:18:02;3.33;;;2.33;;
7817;SDS011;3954;52.624;9.212;2022-10-17T10:20:49;4.43;;;2.60;;
7817;SDS011;3954;52.624;9.212;2022-10-17T10:23:27;7.97;;;2.30;;
7817;SDS011;3954;52.624;9.212;2022-10-17T10:25:54;5.40;;;2.60;;
7817;SDS011;3954;52.624;9.212;2022-10-17T10:28:22;4.07;;;2.60;;
7817;SDS011;3954;52.624;9.212;2022-10-17T10:30:51;4.13;;;2.33;;
7817;SDS011;3954;52.624;9.212;2022-10-17T10:33:18;5.47;;;2.50;;
7817;SDS011;3954;52.624;9.212;2022-10-17T10:35:50;4.47;;;2.40;;
7817;SDS011;3954;52.624;9.212;2022-10-17T10:38:17;7.57;;;2.20;;
7817;SDS011;3954;52.624;9.212;2022-10-17T10:40:43;3.07;;;2.40;;
7817;SDS011;3954;52.624;9.212;2022-10-17T10:43:18;4.30;;;2.47;;
7817;SDS011;3954;52.624;9.212;2022-10-17T10:45:45;3.73;;;2.20;;
7817;SDS011;3954;52.624;9.212;2022-10-17T10:48:17;3.80;;;2.20;;
7817;SDS011;3954;52.624;9.212;2022-10-17T10:50:46;2.53;;;2.20;;
7817;SDS011;3954;52.624;9.212;2022-10-17T10:53:17;3.03;;;2.07;;
7817;SDS011;3954;52.624;9.212;2022-10-17T10:55:46;3.47;;;2.03;;
7817;SDS011;3954;52.624;9.212;2022-10-17T10:58:17;5.30;;;2.20;;
7817;SDS011;3954;52.624;9.212;2022-10-17T11:00:45;3.83;;;2.00;;
7817;SDS011;3954;52.624;9.212;2022-10-17T11:03:12;2.50;;;2.30;;
7817;SDS011;3954;52.624;9.212;2022-10-17T11:05:43;6.93;;;2.40;;
7817;SDS011;3954;52.624;9.212;2022-10-17T11:08:12;2.93;;;2.40;;
7817;SDS011;3954;52.624;9.212;2022-10-17T11:10:40;5.60;;;2.20;;
7817;SDS011;3954;52.624;9.212;2022-10-17T11:13:09;3.70;;;2.67;;
7817;SDS011;3954;52.624;9.212;2022-10-17T11:15:38;3.37;;;2.10;;
7817;SDS011;3954;52.624;9.212;2022-10-17T11:18:08;4.70;;;2.20;;
7817;SDS011;3954;52.624;9.212;2022-10-17T11:20:37;5.37;;;2.33;;
7817;SDS011;3954;52.624;9.212;2022-10-17T11:23:13;8.23;;;2.40;;
7817;SDS011;3954;52.624;9.212;2022-10-17T11:25:44;3.37;;;2.30;;
7817;SDS011;3954;52.624;9.212;2022-10-17T11:28:11;5.60;;;2.73;;
7817;SDS011;3954;52.624;9.212;2022-10-17T11:30:39;4.97;;;2.30;;
7817;SDS011;3954;52.624;9.212;2022-10-17T11:33:05;4.87;;;2.37;;
7817;SDS011;3954;52.624;9.212;2022-10-17T11:35:33;2.20;;;2.00;;
7817;SDS011;3954;52.624;9.212;2022-10-17T11:38:02;3.33;;;2.20;;
7817;SDS011;3954;52.624;9.212;2022-10-17T11:40:32;7.87;;;2.63;;
7817;SDS011;3954;52.624;9.212;2022-10-17T11:43:04;4.80;;;2.50;;
7817;SDS011;3954;52.624;9.212;2022-10-17T11:45:33;4.77;;;2.53;;
7817;SDS011;3954;52.624;9.212;2022-10-17T11:48:02;4.63;;;2.30;;
7817;SDS011;3954;52.624;9.212;2022-10-17T11:50:29;3.10;;;2.20;;
7817;SDS011;3954;52.624;9.212;2022-10-17T11:52:59;3.30;;;2.37;;
7817;SDS011;3954;52.624;9.212;2022-10-17T11:55:27;3.17;;;2.30;;
7817;SDS011;3954;52.624;9.212;2022-10-17T11:57:59;3.03;;;2.70;;
7817;SDS011;3954;52.624;9.212;2022-10-17T12:00:29;4.30;;;2.40;;
7817;SDS011;3954;52.624;9.212;2022-10-17T12:03:00;3.83;;;2.63;;
7817;SDS011;3954;52.624;9.212;2022-10-17T12:05:30;5.50;;;2.80;;
7817;SDS011;3954;52.624;9.212;2022-10-17T12:07:58;3.47;;;2.27;;
7817;SDS011;3954;52.624;9.212;2022-10-17T12:10:32;3.30;;;2.50;;
7817;SDS011;3954;52.624;9.212;2022-10-17T12:15:40;5.63;;;2.70;;
7817;SDS011;3954;52.624;9.212;2022-10-17T12:18:07;4.13;;;2.60;;
7817;SDS011;3954;52.624;9.212;2022-10-17T12:20:40;5.43;;;2.80;;
7817;SDS011;3954;52.624;9.212;2022-10-17T12:23:27;6.10;;;2.70;;
7817;SDS011;3954;52.624;9.212;2022-10-17T12:25:54;4.60;;;2.67;;
7817;SDS011;3954;52.624;9.212;2022-10-17T12:28:26;4.47;;;2.87;;
7817;SDS011;3954;52.624;9.212;2022-10-17T12:30:55;3.70;;;2.53;;
7817;SDS011;3954;52.624;9.212;2022-10-17T12:33:22;5.23;;;2.50;;
7817;SDS011;3954;52.624;9.212;2022-10-17T12:35:51;5.13;;;2.83;;
7817;SDS011;3954;52.624;9.212;2022-10-17T12:38:37;3.40;;;2.97;;
7817;SDS011;3954;52.624;9.212;2022-10-17T12:41:04;4.30;;;2.53;;
7817;SDS011;3954;52.624;9.212;2022-10-17T12:52:12;5.03;;;3.20;;
7817;SDS011;3954;52.624;9.212;2022-10-17T12:54:40;5.33;;;3.43;;
7817;SDS011;3954;52.624;9.212;2022-10-17T12:57:12;8.33;;;3.90;;
7817;SDS011;3954;52.624;9.212;2022-10-17T12:59:41;3.87;;;3.30;;
7817;SDS011;3954;52.624;9.212;2022-10-17T13:02:10;4.37;;;3.37;;
7817;SDS011;3954;52.624;9.212;2022-10-17T13:04:41;6.13;;;3.50;;
7817;SDS011;3954;52.624;9.212;2022-10-17T13:07:12;4.50;;;3.47;;
7817;SDS011;3954;52.624;9.212;2022-10-17T13:09:41;10.10;;;3.93;;
7817;SDS011;3954;52.624;9.212;2022-10-17T13:12:10;7.00;;;3.63;;
7817;SDS011;3954;52.624;9.212;2022-10-17T13:14:38;6.83;;;3.73;;
7817;SDS011;3954;52.624;9.212;2022-10-17T13:17:11;4.80;;;4.10;;
7817;SDS011;3954;52.624;9.212;2022-10-17T13:19:45;5.70;;;3.90;;
7817;SDS011;3954;52.624;9.212;2022-10-17T13:22:14;6.60;;;4.23;;
7817;SDS011;3954;52.624;9.212;2022-10-17T13:24:40;6.80;;;4.33;;
7817;SDS011;3954;52.624;9.212;2022-10-17T13:27:20;4.27;;;3.87;;
7817;SDS011;3954;52.624;9.212;2022-10-17T13:29:47;5.80;;;4.00;;
7817;SDS011;3954;52.624;9.212;2022-10-17T13:32:13;6.07;;;4.53;;
7817;SDS011;3954;52.624;9.212;2022-10-17T13:34:39;8.20;;;4.50;;
7817;SDS011;3954;52.624;9.212;2022-10-17T13:37:06;8.80;;;4.93;;
7817;SDS011;3954;52.624;9.212;2022-10-17T13:39:34;7.50;;;4.97;;
7817;SDS011;3954;52.624;9.212;2022-10-17T13:42:03;8.10;;;4.47;;
7817;SDS011;3954;52.624;9.212;2022-10-17T13:44:31;8.17;;;4.53;;
7817;SDS011;3954;52.624;9.212;2022-10-17T13:46:57;8.87;;;5.17;;
7817;SDS011;3954;52.624;9.212;2022-10-17T13:49:25;6.00;;;5.10;;
7817;SDS011;3954;52.624;9.212;2022-10-17T13:51:52;5.73;;;4.60;;
7817;SDS011;3954;52.624;9.212;2022-10-17T13:54:28;8.23;;;5.10;;
7817;SDS011;3954;52.624;9.212;2022-10-17T13:56:58;6.43;;;5.00;;
7817;SDS011;3954;52.624;9.212;2022-10-17T13:59:25;8.63;;;5.70;;
7817;SDS011;3954;52.624;9.212;2022-10-17T14:01:53;7.50;;;4.67;;
7817;SDS011;3954;52.624;9.212;2022-10-17T14:04:19;7.10;;;5.13;;
7817;SDS011;3954;52.624;9.212;2022-10-17T14:06:46;10.33;;;5.57;;
7817;SDS011;3954;52.624;9.212;2022-10-17T14:09:16;8.03;;;5.33;;
7817;SDS011;3954;52.624;9.212;2022-10-17T14:11:43;5.63;;;4.90;;
7817;SDS011;3954;52.624;9.212;2022-10-17T14:14:16;6.23;;;5.50;;
7817;SDS011;3954;52.624;9.212;2022-10-17T14:16:43;6.57;;;5.07;;
7817;SDS011;3954;52.624;9.212;2022-10-17T14:19:14;19.63;;;6.07;;
7817;SDS011;3954;52.624;9.212;2022-10-17T14:21:41;8.37;;;5.27;;
7817;SDS011;3954;52.624;9.212;2022-10-17T14:24:14;6.97;;;4.90;;
7817;SDS011;3954;52.624;9.212;2022-10-17T14:26:47;6.87;;;5.17;;
7817;SDS011;3954;52.624;9.212;2022-10-17T14:29:19;6.00;;;5.40;;
7817;SDS011;3954;52.624;9.212;2022-10-17T14:31:45;8.67;;;6.13;;
7817;SDS011;3954;52.624;9.212;2022-10-17T14:34:19;8.17;;;5.53;;
7817;SDS011;3954;52.624;9.212;2022-10-17T14:36:46;9.03;;;5.63;;
7817;SDS011;3954;52.624;9.212;2022-10-17T14:39:17;6.37;;;5.77;;
7817;SDS011;3954;52.624;9.212;2022-10-17T14:41:44;5.50;;;5.00;;
7817;SDS011;3954;52.624;9.212;2022-10-17T14:44:15;6.27;;;4.73;;
7817;SDS011;3954;52.624;9.212;2022-10-17T14:46:44;6.93;;;5.97;;
7817;SDS011;3954;52.624;9.212;2022-10-17T14:49:14;8.13;;;5.03;;
7817;SDS011;3954;52.624;9.212;2022-10-17T14:54:25;6.10;;;4.83;;
7817;SDS011;3954;52.624;9.212;2022-10-17T14:56:54;6.93;;;5.60;;
7817;SDS011;3954;52.624;9.212;2022-10-17T14:59:20;6.77;;;5.30;;
7817;SDS011;3954;52.624;9.212;2022-10-17T15:01:49;7.33;;;5.60;;
7817;SDS011;3954;52.624;9.212;2022-10-17T15:04:16;8.63;;;6.83;;
7817;SDS011;3954;52.624;9.212;2022-10-17T15:06:42;7.13;;;5.77;;
7817;SDS011;3954;52.624;9.212;2022-10-17T15:09:08;8.87;;;6.47;;
7817;SDS011;3954;52.624;9.212;2022-10-17T15:11:35;7.00;;;6.30;;
7817;SDS011;3954;52.624;9.212;2022-10-17T15:14:01;11.57;;;7.10;;
7817;SDS011;3954;52.624;9.212;2022-10-17T15:16:30;10.47;;;6.17;;
7817;SDS011;3954;52.624;9.212;2022-10-17T15:18:58;7.70;;;5.73;;
7817;SDS011;3954;52.624;9.212;2022-10-17T15:21:24;6.30;;;5.70;;
7817;SDS011;3954;52.624;9.212;2022-10-17T15:23:51;6.60;;;5.67;;
7817;SDS011;3954;52.624;9.212;2022-10-17T15:26:18;6.83;;;6.10;;
7817;SDS011;3954;52.624;9.212;2022-10-17T15:28:45;7.67;;;5.90;;
7817;SDS011;3954;52.624;9.212;2022-10-17T15:31:12;7.57;;;5.83;;
7817;SDS011;3954;52.624;9.212;2022-10-17T15:33:38;8.17;;;6.53;;
7817;SDS011;3954;52.624;9.212;2022-10-17T15:36:13;7.80;;;6.17;;
7817;SDS011;3954;52.624;9.212;2022-10-17T15:38:41;8.17;;;5.90;;